Time;durP1;ratioP1;P1;durP2;ratioP2;P2;SDS_P1;SDS_P2;PMS_P1;PMS_P2;Temp;Humidity;BMP_temperature;BMP_pressure;BME280_temperature;BME280_humidity;BME280_pressure;Samples;Min_cycle;Max_cycle;Signal;HPM_P1;HPM_P2
2022/08/09 00:00:03;;;;;;;7.13;3.27;;;;;;;18.68;69.21;102598.13;5276741;28;20032;-74
2022/08/09 00:02:34;;;;;;;5.70;3.50;;;;;;;18.19;71.12;102595.97;5276514;28;20032;-73
2022/08/09 00:05:06;;;;;;;4.80;3.23;;;;;;;18.23;70.90;102599.25;5279448;28;20025;-73
2022/08/09 00:07:37;;;;;;;5.70;4.10;;;;;;;18.18;71.73;102588.09;5278625;28;20036;-73
2022/08/09 00:10:09;;;;;;;7.03;3.47;;;;;;;18.18;71.06;102596.06;5292239;28;20463;-74
2022/08/09 00:12:40;;;;;;;10.13;4.17;;;;;;;18.46;69.87;102591.59;5282652;28;20054;-73
2022/08/09 00:15:11;;;;;;;7.93;3.80;;;;;;;18.05;71.66;102575.59;5294818;28;20036;-73
2022/08/09 00:17:43;;;;;;;8.53;3.70;;;;;;;18.31;70.51;102586.34;5291851;28;20085;-73
2022/08/09 00:20:14;;;;;;;4.90;3.23;;;;;;;18.17;71.26;102576.63;5286637;28;20036;-74
2022/08/09 00:22:45;;;;;;;7.23;3.87;;;;;;;18.16;71.21;102582.03;5295843;28;20103;-74
2022/08/09 00:25:17;;;;;;;5.33;3.53;;;;;;;18.42;69.46;102576.84;5292288;28;20058;-74
2022/08/09 00:27:48;;;;;;;6.53;3.50;;;;;;;18.03;71.80;102588.09;5293896;28;20032;-73
2022/08/09 00:30:19;;;;;;;6.93;4.13;;;;;;;18.29;70.24;102585.63;5285619;28;20493;-73
2022/08/09 00:32:51;;;;;;;6.13;3.50;;;;;;;17.95;72.09;102585.09;5292910;28;20024;-73
2022/08/09 00:35:22;;;;;;;5.53;3.57;;;;;;;17.85;72.47;102583.06;5286512;28;20395;-73
2022/08/09 00:37:54;;;;;;;5.60;3.40;;;;;;;17.86;72.28;102579.44;5289152;28;20105;-72
2022/08/09 00:40:25;;;;;;;6.53;3.17;;;;;;;17.79;72.80;102586.06;5277850;28;20035;-72
2022/08/09 00:42:56;;;;;;;8.17;3.60;;;;;;;17.80;72.72;102585.16;5283064;28;20093;-72
2022/08/09 00:45:27;;;;;;;7.53;3.83;;;;;;;17.69;73.30;102582.31;5285978;28;20035;-73
2022/08/09 00:47:59;;;;;;;6.07;3.60;;;;;;;17.61;73.93;102580.97;5294594;28;20024;-73
2022/08/09 00:50:31;;;;;;;9.37;3.37;;;;;;;17.74;73.22;102582.88;5294572;28;20054;-72
2022/08/09 00:53:02;;;;;;;9.83;4.13;;;;;;;17.52;74.02;102590.34;5292864;28;20071;-73
2022/08/09 00:55:34;;;;;;;8.17;3.40;;;;;;;17.76;72.80;102596.88;5294210;28;20050;-72
2022/08/09 00:58:05;;;;;;;8.50;3.80;;;;;;;17.72;73.01;102588.25;5293919;28;20028;-72
2022/08/09 01:00:39;;;;;;;9.57;4.07;;;;;;;17.65;73.51;102594.88;5290686;28;20036;-72
2022/08/09 01:03:18;;;;;;;6.03;3.60;;;;;;;17.79;72.48;102591.38;5294596;28;20028;-72
2022/08/09 01:06:04;;;;;;;7.13;3.30;;;;;;;17.78;72.42;102587.03;5293247;28;20032;-72
2022/08/09 01:08:51;;;;;;;5.37;4.27;;;;;;;17.56;74.08;102585.72;5284079;28;20456;-72
2022/08/09 01:11:34;;;;;;;10.53;4.07;;;;;;;17.50;74.15;102586.97;5288586;28;20370;-73
2022/08/09 01:14:12;;;;;;;7.57;4.18;;;;;;;17.44;74.46;102586.50;5292345;28;20393;-73
2022/08/09 01:16:46;;;;;;;6.20;4.10;;;;;;;17.31;74.62;102591.69;5289164;28;20040;-75
2022/08/09 01:19:42;;;;;;;4.93;3.33;;;;;;;17.63;73.19;102592.34;5283125;28;20063;-74
2022/08/09 01:22:55;;;;;;;7.37;3.63;;;;;;;17.50;74.10;102597.56;5283039;28;20435;-72
2022/08/09 01:26:01;;;;;;;7.43;3.60;;;;;;;17.42;74.12;102590.06;5270186;28;20070;-72
2022/08/09 01:28:36;;;;;;;4.93;3.97;;;;;;;17.35;74.59;102588.75;5288764;28;21109;-73
2022/08/09 01:31:11;;;;;;;6.87;3.97;;;;;;;17.17;75.00;102570.38;5286651;28;20090;-72
2022/08/09 01:33:47;;;;;;;6.60;3.90;;;;;;;17.15;75.36;102580.25;5292144;28;20032;-73
2022/08/09 01:36:21;;;;;;;5.13;4.20;;;;;;;17.23;75.28;102590.34;5273731;28;20043;-73
2022/08/09 01:38:55;;;;;;;9.47;4.20;;;;;;;16.95;76.57;102585.84;5273604;28;20090;-74
2022/08/09 01:41:32;;;;;;;6.00;3.57;;;;;;;17.14;75.80;102581.16;5272272;28;20050;-71
2022/08/09 01:44:05;;;;;;;4.87;3.47;;;;;;;17.06;76.13;102575.47;5272368;28;20614;-72
2022/08/09 01:46:43;;;;;;;4.80;3.30;;;;;;;17.33;74.46;102580.03;5273626;28;20039;-72
2022/08/09 01:49:17;;;;;;;7.60;4.20;;;;;;;17.03;75.95;102578.28;5271629;28;20036;-73
2022/08/09 01:51:51;;;;;;;6.32;3.80;;;;;;;17.03;75.87;102573.00;5272959;28;20389;-73
2022/08/09 01:54:37;;;;;;;4.80;3.50;;;;;;;17.04;76.07;102588.78;5271598;28;20114;-72
2022/08/09 01:57:12;;;;;;;7.40;3.93;;;;;;;17.29;74.49;102589.13;5274424;28;20046;-72
2022/08/09 01:59:48;;;;;;;5.00;3.57;;;;;;;17.02;75.94;102587.16;5294036;28;20167;-73
2022/08/09 02:02:25;;;;;;;6.43;3.83;;;;;;;17.23;74.46;102578.91;5292172;28;20032;-72
2022/08/09 02:04:59;;;;;;;6.17;3.37;;;;;;;17.04;75.89;102601.16;5273358;28;20434;-72
2022/08/09 02:07:34;;;;;;;7.70;3.90;;;;;;;16.92;77.20;102603.59;5281339;28;20036;-73
2022/08/09 02:10:21;;;;;;;8.40;3.93;;;;;;;16.99;75.76;102590.84;5285227;28;20074;-73
2022/08/09 02:12:54;;;;;;;7.73;4.30;;;;;;;16.79;76.94;102597.34;5287224;28;20040;-73
2022/08/09 02:15:27;;;;;;;7.63;3.93;;;;;;;16.90;76.76;102599.31;5291301;28;20063;-73
2022/08/09 02:17:59;;;;;;;7.67;3.80;;;;;;;16.77;77.01;102594.75;5288582;28;20295;-72
2022/08/09 02:20:34;;;;;;;5.67;4.07;;;;;;;17.02;75.12;102588.03;5291027;28;20032;-73
2022/08/09 02:23:25;;;;;;;9.10;4.00;;;;;;;17.07;75.05;102593.03;5286817;28;20437;-73
2022/08/09 02:25:58;;;;;;;7.43;3.80;;;;;;;17.19;74.43;102593.28;5277628;28;20036;-73
2022/08/09 02:28:35;;;;;;;6.18;4.38;;;;;;;16.79;76.43;102592.88;5291991;28;20383;-73
2022/08/09 02:31:12;;;;;;;7.50;4.13;;;;;;;17.01;75.30;102593.41;5288974;28;20043;-73
2022/08/09 02:33:45;;;;;;;5.43;3.43;;;;;;;16.74;76.58;102588.81;5288041;28;20039;-73
2022/08/09 02:36:22;;;;;;;6.60;4.00;;;;;;;16.89;75.59;102585.28;5296123;28;20051;-73
2022/08/09 02:38:57;;;;;;;8.23;4.20;;;;;;;16.66;76.96;102592.75;5296431;28;20023;-72
2022/08/09 02:41:37;;;;;;;7.00;4.50;;;;;;;16.61;77.12;102586.88;5294502;28;20031;-73
2022/08/09 02:44:19;;;;;;;6.43;4.17;;;;;;;16.40;79.03;102587.19;5283831;28;20023;-73
2022/08/09 02:46:54;;;;;;;7.63;4.03;;;;;;;16.36;78.92;102580.34;5279173;28;20047;-73
2022/08/09 02:49:26;;;;;;;6.00;3.80;;;;;;;16.22;79.46;102578.50;5297677;28;20032;-73
2022/08/09 02:51:58;;;;;;;5.30;3.90;;;;;;;16.24;80.50;102581.03;5282823;28;20036;-73
2022/08/09 02:54:32;;;;;;;5.57;4.10;;;;;;;16.32;79.62;102578.81;5296298;28;20036;-73
2022/08/09 02:57:06;;;;;;;6.25;4.35;;;;;;;16.36;79.73;102585.63;5294243;28;20518;-73
2022/08/09 02:59:38;;;;;;;6.90;3.97;;;;;;;16.10;81.12;102574.75;5294260;28;20024;-73
2022/08/09 03:02:13;;;;;;;6.37;4.33;;;;;;;16.28;79.92;102577.31;5292483;28;20480;-73
2022/08/09 03:04:46;;;;;;;5.73;4.27;;;;;;;16.00;81.59;102573.56;5282654;28;20024;-74
2022/08/09 03:07:18;;;;;;;5.47;4.87;;;;;;;16.10;80.92;102580.03;5294902;28;20040;-73
2022/08/09 03:09:51;;;;;;;7.10;4.30;;;;;;;16.21;80.53;102572.34;5295234;28;20127;-73
2022/08/09 03:12:24;;;;;;;7.70;4.00;;;;;;;16.46;79.03;102585.97;5294132;28;20110;-73
2022/08/09 03:14:57;;;;;;;6.43;4.30;;;;;;;16.13;80.88;102585.13;5284341;28;20044;-72
2022/08/09 03:17:28;;;;;;;7.27;4.33;;;;;;;16.13;80.97;102584.31;5287007;28;20024;-73
2022/08/09 03:20:01;;;;;;;5.80;4.00;;;;;;;16.00;81.45;102581.47;5280748;28;20050;-73
2022/08/09 03:22:36;;;;;;;6.47;4.07;;;;;;;16.09;81.14;102575.69;5293441;28;20388;-74
2022/08/09 03:25:09;;;;;;;5.40;4.40;;;;;;;16.19;80.31;102578.66;5291668;28;20020;-74
2022/08/09 03:27:48;;;;;;;8.53;4.53;;;;;;;15.98;81.77;102570.97;5277835;28;20124;-72
2022/08/09 03:30:19;;;;;;;7.70;4.47;;;;;;;16.21;79.96;102577.63;5268465;28;20028;-72
2022/08/09 03:32:53;;;;;;;6.43;4.33;;;;;;;16.20;80.15;102578.56;5277774;28;20463;-73
2022/08/09 03:35:25;;;;;;;5.40;4.88;;;;;;;16.15;80.40;102588.56;5293365;28;20549;-73
2022/08/09 03:37:56;;;;;;;7.03;4.63;;;;;;;16.08;80.84;102581.91;5294176;28;20028;-72
2022/08/09 03:40:29;;;;;;;6.73;4.67;;;;;;;16.14;81.01;102591.28;5295078;28;20024;-72
2022/08/09 03:43:00;;;;;;;10.23;4.70;;;;;;;15.94;81.60;102578.22;5287007;28;20024;-73
2022/08/09 03:45:31;;;;;;;7.13;4.90;;;;;;;16.25;79.80;102590.69;5285691;28;20033;-72
2022/08/09 03:48:03;;;;;;;9.60;4.70;;;;;;;16.15;80.34;102588.56;5291003;28;20339;-73
2022/08/09 03:50:36;;;;;;;7.37;5.63;;;;;;;15.91;82.04;102586.31;5287907;28;21358;-74
2022/08/09 03:53:08;;;;;;;7.80;5.03;;;;;;;16.18;80.21;102588.38;5292575;28;20059;-72
2022/08/09 03:55:40;;;;;;;7.73;5.37;;;;;;;16.00;81.28;102594.69;5291617;28;20024;-72
2022/08/09 03:58:11;;;;;;;7.80;4.80;;;;;;;16.12;80.44;102595.81;5295979;28;20039;-72
2022/08/09 04:00:47;;;;;;;8.90;4.80;;;;;;;16.11;80.60;102586.19;5294851;28;20031;-72
2022/08/09 04:03:19;;;;;;;6.67;4.70;;;;;;;16.05;80.82;102588.22;5295226;28;20093;-73
2022/08/09 04:05:50;;;;;;;7.37;5.10;;;;;;;16.05;80.96;102590.00;5285758;28;20037;-73
2022/08/09 04:08:22;;;;;;;5.87;4.43;;;;;;;15.86;81.71;102583.06;5289711;28;20047;-72
2022/08/09 04:10:53;;;;;;;17.73;6.80;;;;;;;15.75;82.27;102588.06;5293385;28;20040;-73
2022/08/09 04:13:24;;;;;;;8.23;5.20;;;;;;;16.02;80.92;102588.41;5287795;28;20040;-73
2022/08/09 04:15:56;;;;;;;10.77;5.40;;;;;;;15.64;83.41;102584.22;5284023;28;20035;-72
2022/08/09 04:18:27;;;;;;;7.57;5.17;;;;;;;15.87;81.97;102579.47;5282237;28;20416;-72
2022/08/09 04:20:58;;;;;;;9.70;5.33;;;;;;;15.96;81.44;102578.97;5295540;28;20032;-72
2022/08/09 04:23:30;;;;;;;9.40;4.83;;;;;;;15.63;83.51;102582.53;5292489;28;20032;-73
2022/08/09 04:26:01;;;;;;;6.13;5.13;;;;;;;15.56;84.52;102581.16;5293465;28;20040;-73
2022/08/09 04:28:32;;;;;;;7.80;5.27;;;;;;;15.52;85.34;102592.78;5292593;28;20054;-73
2022/08/09 04:31:05;;;;;;;8.07;5.10;;;;;;;15.59;85.44;102596.81;5283810;28;20028;-72
2022/08/09 04:33:38;;;;;;;5.53;4.97;;;;;;;15.78;83.70;102595.84;5275085;28;20090;-72
2022/08/09 04:36:09;;;;;;;8.83;6.10;;;;;;;15.48;85.77;102600.88;5290652;28;20039;-72
2022/08/09 04:38:41;;;;;;;10.33;5.83;;;;;;;15.41;86.66;102610.06;5288679;28;20023;-73
2022/08/09 04:41:12;;;;;;;6.47;5.83;;;;;;;15.47;87.30;102604.47;5291169;28;20123;-73
2022/08/09 04:43:43;;;;;;;7.50;5.83;;;;;;;15.30;88.16;102604.50;5283903;28;20020;-77
2022/08/09 04:46:15;;;;;;;7.40;6.13;;;;;;;15.58;86.98;102611.84;5284207;28;20089;-72
2022/08/09 04:48:46;;;;;;;8.73;5.83;;;;;;;15.54;87.00;102617.34;5283384;28;20636;-74
2022/08/09 04:51:17;;;;;;;8.30;5.60;;;;;;;15.45;87.91;102606.34;5293186;28;20107;-72
2022/08/09 04:53:49;;;;;;;8.30;5.40;;;;;;;15.63;86.77;102614.22;5293423;28;20027;-71
2022/08/09 04:56:20;;;;;;;6.47;5.73;;;;;;;15.67;86.99;102621.06;5291655;28;20107;-72
2022/08/09 04:58:51;;;;;;;5.80;5.27;;;;;;;15.66;86.41;102619.34;5293745;28;20043;-70
2022/08/09 05:01:23;;;;;;;8.93;6.83;;;;;;;15.39;88.56;102622.50;5285190;28;20036;-71
2022/08/09 05:03:54;;;;;;;9.37;5.40;;;;;;;15.46;88.53;102617.75;5272547;28;20041;-70
2022/08/09 05:06:25;;;;;;;11.23;5.93;;;;;;;15.66;87.35;102624.63;5272014;28;20025;-70
2022/08/09 05:08:56;;;;;;;9.43;6.80;;;;;;;15.41;89.70;102631.19;5279031;28;20093;-71
2022/08/09 05:11:29;;;;;;;6.97;6.07;;;;;;;15.53;89.71;102628.84;5282511;28;20028;-68
2022/08/09 05:14:04;;;;;;;14.37;6.40;;;;;;;15.39;91.13;102630.44;5293171;28;20059;-72
2022/08/09 05:16:35;;;;;;;7.27;6.60;;;;;;;15.52;90.24;102627.97;5292437;28;20099;-72
2022/08/09 05:19:06;;;;;;;9.30;6.83;;;;;;;15.46;90.77;102623.03;5294155;28;20116;-75
2022/08/09 05:21:38;;;;;;;9.20;7.13;;;;;;;15.48;92.17;102632.56;5291015;28;20644;-74
2022/08/09 05:24:09;;;;;;;9.77;6.40;;;;;;;15.64;91.46;102641.50;5291208;28;20438;-73
2022/08/09 05:26:41;;;;;;;8.07;6.77;;;;;;;15.51;92.61;102630.72;5288847;28;20384;-73
2022/08/09 05:29:18;;;;;;;9.83;6.93;;;;;;;15.68;91.46;102635.97;5292186;28;20063;-73
2022/08/09 05:31:51;;;;;;;11.00;6.90;;;;;;;15.59;92.98;102628.50;5279997;28;20040;-74
2022/08/09 05:34:22;;;;;;;12.60;6.57;;;;;;;15.51;93.52;102621.00;5272565;28;20127;-73
2022/08/09 05:36:55;;;;;;;10.93;6.70;;;;;;;15.71;92.67;102625.22;5290134;28;20172;-72
2022/08/09 05:39:26;;;;;;;13.17;6.93;;;;;;;15.77;92.98;102631.13;5290910;28;20036;-74
2022/08/09 05:41:57;;;;;;;10.20;7.23;;;;;;;15.91;91.73;102627.72;5288381;28;20027;-72
2022/08/09 05:44:29;;;;;;;9.40;7.10;;;;;;;15.80;92.79;102620.38;5286928;28;20032;-73
2022/08/09 05:47:00;;;;;;;10.80;7.60;;;;;;;15.75;94.34;102636.47;5291327;28;20032;-72
2022/08/09 05:49:32;;;;;;;11.23;7.07;;;;;;;15.91;94.30;102643.59;5292970;28;20024;-74
2022/08/09 05:52:03;;;;;;;10.07;7.30;;;;;;;15.91;94.58;102644.44;5290793;28;20071;-74
2022/08/09 05:54:35;;;;;;;10.23;7.23;;;;;;;15.87;95.25;102640.25;5290217;28;20495;-73
2022/08/09 05:57:06;;;;;;;11.93;7.70;;;;;;;16.01;94.70;102633.38;5293448;28;20038;-74
2022/08/09 05:59:38;;;;;;;13.07;8.00;;;;;;;15.94;96.31;102644.28;5293412;28;20039;-73
2022/08/09 06:02:09;;;;;;;8.23;7.43;;;;;;;15.97;96.60;102638.81;5292794;28;20048;-73
2022/08/09 06:04:40;;;;;;;10.30;8.63;;;;;;;15.93;96.58;102621.44;5286178;28;20028;-73
2022/08/09 06:07:12;;;;;;;10.17;7.10;;;;;;;16.19;95.65;102656.19;5271902;28;20123;-74
2022/08/09 06:09:43;;;;;;;9.93;6.97;;;;;;;16.17;95.88;102643.97;5273559;28;20064;-75
2022/08/09 06:12:14;;;;;;;10.37;7.73;;;;;;;16.11;97.31;102644.31;5271529;28;20024;-75
2022/08/09 06:14:46;;;;;;;12.27;7.87;;;;;;;16.32;94.90;102652.84;5274389;28;20074;-73
2022/08/09 06:17:17;;;;;;;10.43;8.10;;;;;;;16.15;100.00;102651.13;5273211;28;20024;-73
2022/08/09 06:19:49;;;;;;;10.10;7.73;;;;;;;16.35;98.81;102644.75;5272177;28;20028;-73
2022/08/09 06:22:20;;;;;;;11.03;7.37;;;;;;;16.30;98.90;102646.81;5278085;28;20181;-73
2022/08/09 06:24:51;;;;;;;12.03;7.77;;;;;;;16.34;99.31;102661.53;5293378;28;20384;-74
2022/08/09 06:27:22;;;;;;;9.53;7.73;;;;;;;16.43;98.88;102661.03;5291602;28;20166;-73
2022/08/09 06:29:54;;;;;;;12.67;7.33;;;;;;;16.40;100.00;102661.22;5285583;28;20020;-73
2022/08/09 06:32:25;;;;;;;14.30;8.17;;;;;;;16.45;98.68;102651.25;5279001;28;20076;-73
2022/08/09 06:34:56;;;;;;;12.80;8.03;;;;;;;16.57;98.78;102662.91;5290667;28;20036;-73
2022/08/09 06:37:28;;;;;;;11.73;8.60;;;;;;;16.56;99.89;102665.66;5276613;28;20090;-73
2022/08/09 06:39:59;;;;;;;14.43;8.27;;;;;;;16.64;98.71;102668.69;5274795;28;20039;-73
2022/08/09 06:42:30;;;;;;;9.80;7.80;;;;;;;16.64;99.29;102666.06;5285470;28;20033;-72
2022/08/09 06:45:02;;;;;;;11.20;8.13;;;;;;;16.75;98.17;102657.50;5281212;28;20037;-72
2022/08/09 06:47:33;;;;;;;10.83;8.57;;;;;;;16.79;97.95;102660.84;5292242;28;20610;-73
2022/08/09 06:50:05;;;;;;;11.00;8.27;;;;;;;16.77;100.00;102652.13;5292692;28;20024;-74
2022/08/09 06:52:38;;;;;;;9.87;8.13;;;;;;;16.81;97.95;102657.16;5284587;28;20056;-73
2022/08/09 06:55:18;;;;;;;11.55;8.88;;;;;;;16.91;98.45;102665.41;5280597;28;20032;-73
2022/08/09 06:57:49;;;;;;;18.47;8.60;;;;;;;16.90;99.02;102663.69;5291172;28;20071;-74
2022/08/09 07:00:21;;;;;;;11.20;8.53;;;;;;;16.98;98.29;102667.69;5294687;28;20449;-73
2022/08/09 07:02:52;;;;;;;11.23;8.73;;;;;;;17.05;97.15;102661.13;5296341;28;20034;-72
2022/08/09 07:05:24;;;;;;;11.90;7.87;;;;;;;17.13;96.95;102668.63;5293055;28;20024;-73
2022/08/09 07:07:55;;;;;;;11.03;8.40;;;;;;;17.25;97.82;102674.97;5279396;28;20032;-72
2022/08/09 07:10:26;;;;;;;12.23;9.20;;;;;;;17.32;95.45;102673.69;5294372;28;20031;-73
2022/08/09 07:12:58;;;;;;;10.50;8.70;;;;;;;17.46;96.67;102677.28;5293659;28;20051;-72
2022/08/09 07:15:30;;;;;;;13.03;8.60;;;;;;;17.62;93.44;102679.88;5296830;28;20115;-73
2022/08/09 07:18:01;;;;;;;12.87;8.07;;;;;;;17.81;94.43;102681.38;5277816;28;20488;-73
2022/08/09 07:20:32;;;;;;;11.33;7.73;;;;;;;17.96;90.05;102672.47;5278759;28;20749;-73
2022/08/09 07:23:03;;;;;;;8.53;7.33;;;;;;;18.18;87.87;102670.31;5291717;28;20426;-72
2022/08/09 07:25:35;;;;;;;10.17;8.33;;;;;;;18.36;86.61;102678.91;5296232;28;20862;-71
2022/08/09 07:28:06;;;;;;;9.80;7.63;;;;;;;18.47;87.49;102673.75;5292347;28;20032;-73
2022/08/09 07:30:38;;;;;;;11.73;7.27;;;;;;;18.58;87.30;102672.19;5277477;28;20491;-71
2022/08/09 07:33:09;;;;;;;11.47;7.70;;;;;;;18.65;84.69;102667.31;5284821;28;20455;-70
2022/08/09 07:35:40;;;;;;;8.43;7.23;;;;;;;18.77;84.28;102676.28;5284536;28;20495;-73
2022/08/09 07:38:12;;;;;;;10.87;6.97;;;;;;;18.96;83.56;102679.44;5279549;28;20106;-74
2022/08/09 07:40:43;;;;;;;12.40;7.27;;;;;;;18.96;82.83;102681.22;5276871;28;20029;-76
2022/08/09 07:43:14;;;;;;;11.27;7.23;;;;;;;18.88;81.02;102676.44;5273563;28;20491;-73
2022/08/09 07:45:46;;;;;;;8.93;7.60;;;;;;;19.17;81.37;102678.97;5273951;28;20019;-73
2022/08/09 07:48:17;;;;;;;8.50;6.87;;;;;;;19.24;79.35;102682.06;5275092;28;20040;-73
2022/08/09 07:50:48;;;;;;;14.10;7.67;;;;;;;19.15;78.12;102670.25;5274211;28;20131;-74
2022/08/09 07:53:20;;;;;;;9.33;6.57;;;;;;;19.59;78.64;102685.88;5274572;28;20036;-73
2022/08/09 07:55:51;;;;;;;7.73;6.23;;;;;;;19.73;76.33;102684.94;5273624;28;20505;-74
2022/08/09 07:58:22;;;;;;;7.07;6.20;;;;;;;19.75;74.48;102688.34;5273606;28;20533;-74
2022/08/09 08:00:54;;;;;;;10.23;6.63;;;;;;;19.70;74.61;102682.50;5277614;28;20028;-74
2022/08/09 08:03:25;;;;;;;9.67;6.83;;;;;;;19.90;74.01;102678.41;5291474;28;20028;-76
2022/08/09 08:05:56;;;;;;;11.73;7.47;;;;;;;19.90;73.84;102682.88;5290241;28;20036;-75
2022/08/09 08:08:28;;;;;;;12.03;6.70;;;;;;;20.16;73.11;102680.22;5286078;28;20047;-78
2022/08/09 08:11:00;;;;;;;9.43;6.47;;;;;;;20.26;72.87;102694.56;5283480;28;20032;-77
2022/08/09 08:13:31;;;;;;;8.17;6.40;;;;;;;20.40;70.54;102690.88;5294420;28;20060;-79
2022/08/09 08:16:03;;;;;;;10.57;6.03;;;;;;;20.43;70.62;102681.81;5288293;28;20131;-77
2022/08/09 08:18:34;;;;;;;9.03;6.60;;;;;;;20.35;70.67;102689.53;5281674;28;20036;-77
2022/08/09 08:21:05;;;;;;;10.43;6.60;;;;;;;20.53;69.67;102682.84;5277619;28;20042;-76
2022/08/09 08:23:37;;;;;;;9.70;6.40;;;;;;;20.75;69.89;102686.56;5297962;28;20090;-76
2022/08/09 08:26:08;;;;;;;8.50;6.57;;;;;;;20.94;69.28;102684.38;5287045;28;20679;-76
2022/08/09 08:28:39;;;;;;;7.67;5.57;;;;;;;20.74;68.18;102678.69;5292934;28;20035;-77
2022/08/09 08:31:11;;;;;;;6.85;5.65;;;;;;;20.93;67.60;102678.16;5284838;28;20028;-76
2022/08/09 08:33:43;;;;;;;13.48;6.45;;;;;;;21.16;65.83;102680.91;5281195;28;20028;-76
2022/08/09 08:36:14;;;;;;;8.18;5.10;;;;;;;21.24;64.96;102673.19;5272893;28;20495;-76
2022/08/09 08:38:45;;;;;;;13.13;4.57;;;;;;;21.49;65.03;102684.63;5274766;28;20119;-76
2022/08/09 08:41:17;;;;;;;11.07;5.15;;;;;;;21.49;63.93;102684.63;5273810;28;20107;-76
2022/08/09 08:43:49;;;;;;;5.82;3.92;;;;;;;21.37;62.35;102672.25;5274713;28;20029;-75
2022/08/09 08:46:32;;;;;;;10.02;5.07;;;;;;;21.43;62.71;102682.44;5261048;28;20020;-77
2022/08/09 08:49:04;;;;;;;9.63;4.22;;;;;;;21.86;62.83;102688.91;5274629;28;20448;-74
2022/08/09 08:51:36;;;;;;;7.80;5.55;;;;;;;21.56;62.81;102676.13;5271946;28;20025;-74
2022/08/09 08:54:08;;;;;;;10.80;4.68;;;;;;;21.80;61.50;102680.53;5274188;28;20051;-73
2022/08/09 08:56:39;;;;;;;7.90;3.22;;;;;;;22.12;59.33;102674.44;5274237;28;20106;-75
2022/08/09 08:59:12;;;;;;;6.05;2.47;;;;;;;22.25;59.24;102668.97;5272850;28;20392;-74
2022/08/09 09:01:44;;;;;;;7.50;3.28;;;;;;;22.33;58.65;102676.31;5272122;28;20127;-75
2022/08/09 09:04:18;;;;;;;4.28;2.38;;;;;;;22.15;58.16;102692.84;5272338;28;20036;-76
2022/08/09 09:06:50;;;;;;;;;;;;;;;22.34;59.62;102686.88;5274279;28;20444;-76
2022/08/09 09:09:24;;;;;;;4.28;2.72;;;;;;;22.60;57.51;102696.41;5273571;28;20003;-75
2022/08/09 09:11:58;;;;;;;9.23;3.55;;;;;;;22.68;56.74;102701.97;5274254;28;20546;-75
2022/08/09 09:14:30;;;;;;;7.18;2.47;;;;;;;22.81;56.97;102700.97;5273837;28;20060;-75
2022/08/09 09:17:02;;;;;;;7.45;2.42;;;;;;;22.62;56.60;102691.78;5272816;28;20039;-74
2022/08/09 09:19:33;;;;;;;5.15;2.25;;;;;;;23.04;55.83;102706.19;5273156;28;20024;-75
2022/08/09 09:22:07;;;;;;;7.97;2.13;;;;;;;23.01;54.81;102691.25;5272654;28;20036;-75
2022/08/09 09:24:51;;;;;;;6.30;2.45;;;;;;;23.31;55.55;102708.34;5272688;28;20028;-76
2022/08/09 09:27:25;;;;;;;5.95;2.08;;;;;;;23.08;54.05;102696.91;5273028;28;20025;-76
2022/08/09 09:30:07;;;;;;;;;;;;;;;23.21;55.75;102710.09;5274303;28;20115;-78
2022/08/09 09:32:38;;;;;;;7.85;2.20;;;;;;;23.29;53.83;102698.75;5272989;28;20005;-74
2022/08/09 09:35:11;;;;;;;4.50;1.70;;;;;;;23.68;53.78;102703.47;5270383;28;20108;-77
2022/08/09 09:37:44;;;;;;;6.57;1.90;;;;;;;23.51;52.78;102705.78;5272008;28;20024;-75
2022/08/09 09:40:16;;;;;;;6.47;1.38;;;;;;;23.92;51.44;102694.28;5272563;28;20020;-75
2022/08/09 09:42:56;;;;;;;6.95;2.20;;;;;;;23.86;52.39;102689.47;5272812;28;20016;-75
2022/08/09 09:45:27;;;;;;;6.03;2.13;;;;;;;24.07;50.94;102685.88;5271707;28;20024;-78
2022/08/09 09:48:02;;;;;;;2.75;1.38;;;;;;;24.23;50.17;102690.69;5271514;28;20048;-77
2022/08/09 09:50:45;;;;;;;3.00;1.35;;;;;;;24.46;48.77;102690.44;5271636;28;20028;-76
2022/08/09 09:53:19;;;;;;;3.27;1.23;;;;;;;24.44;47.66;102695.94;5272025;28;20115;-76
2022/08/09 09:56:01;;;;;;;;;;;;;;;24.38;49.05;102701.88;5273596;28;20070;-76
2022/08/09 09:58:46;;;;;;;4.28;0.93;;;;;;;24.29;48.01;102693.69;5273099;28;19926;-78
2022/08/09 10:01:21;;;;;;;4.28;1.00;;;;;;;24.51;47.13;102698.91;5273141;28;20036;-78
2022/08/09 10:03:54;;;;;;;3.88;1.27;;;;;;;24.33;47.00;102691.56;5273589;28;20024;-78
2022/08/09 10:06:41;;;;;;;4.32;1.27;;;;;;;24.35;46.60;102699.47;5270515;28;20024;-78
2022/08/09 10:09:15;;;;;;;5.78;1.60;;;;;;;24.44;45.42;102697.78;5273238;28;20377;-78
2022/08/09 10:11:46;;;;;;;4.55;1.40;;;;;;;24.44;45.64;102697.78;5274442;28;20512;-78
2022/08/09 10:14:26;;;;;;;4.80;1.13;;;;;;;24.62;46.54;102705.97;5271623;28;20049;-71
2022/08/09 10:16:58;;;;;;;6.72;1.42;;;;;;;24.71;45.25;102709.66;5272251;28;20385;-74
2022/08/09 10:19:35;;;;;;;3.60;1.02;;;;;;;24.82;44.97;102685.38;5272333;28;20029;-75
2022/08/09 10:22:07;;;;;;;5.35;1.75;;;;;;;25.15;43.91;102687.78;5292039;28;20035;-76
2022/08/09 10:24:39;;;;;;;3.28;0.98;;;;;;;25.18;44.23;102683.94;5279928;28;20615;-77
2022/08/09 10:27:10;;;;;;;3.03;1.40;;;;;;;25.05;43.08;102690.47;5272153;28;20424;-77
2022/08/09 10:29:41;;;;;;;3.17;0.80;;;;;;;25.28;42.94;102687.44;5272518;28;20036;-78
2022/08/09 10:32:14;;;;;;;3.63;0.80;;;;;;;25.30;43.85;102690.84;5272519;28;20025;-76
2022/08/09 10:34:46;;;;;;;3.22;0.80;;;;;;;25.35;43.86;102685.88;5275725;28;20519;-79
2022/08/09 10:37:17;;;;;;;5.05;1.15;;;;;;;25.41;43.81;102683.59;5277160;28;20032;-78
2022/08/09 10:39:49;;;;;;;1.70;0.80;;;;;;;25.37;42.29;102678.53;5298378;28;20023;-77
2022/08/09 10:42:21;;;;;;;1.63;0.80;;;;;;;25.57;42.74;102678.44;5292147;28;20063;-76
2022/08/09 10:45:00;;;;;;;4.22;1.00;;;;;;;25.79;42.18;102680.91;5292681;28;20127;-77
2022/08/09 10:47:58;;;;;;;3.25;1.10;;;;;;;26.04;42.57;102667.78;5283857;28;20016;-76
2022/08/09 10:53:59;;;;;;;4.10;0.88;;;;;;;26.47;42.82;102662.69;5274952;28;20451;-75
2022/08/09 10:56:33;;;;;;;3.85;1.50;;;;;;;26.62;40.95;102675.59;5281361;28;20032;-74
2022/08/09 10:59:23;;;;;;;2.67;0.82;;;;;;;26.81;40.91;102663.81;5274268;28;20035;-70
2022/08/09 11:01:55;;;;;;;7.07;2.33;;;;;;;27.01;39.91;102659.06;5257562;28;20032;-70
2022/08/09 11:04:28;;;;;;;3.22;1.10;;;;;;;27.40;40.54;102660.47;5257849;28;20058;-70
2022/08/09 11:07:00;;;;;;;2.65;0.90;;;;;;;27.55;37.70;102673.34;5254798;28;20036;-70
2022/08/09 11:09:37;;;;;;;2.45;0.88;;;;;;;27.72;39.32;102670.75;5257969;28;20036;-71
2022/08/09 11:12:10;;;;;;;6.40;1.10;;;;;;;27.47;38.26;102662.53;5255566;28;20636;-69
2022/08/09 11:14:56;;;;;;;3.38;1.05;;;;;;;27.54;40.11;102661.72;5256694;28;20047;-70
2022/08/09 11:17:30;;;;;;;6.93;1.70;;;;;;;27.92;37.66;102665.06;5256300;28;20036;-72
2022/08/09 11:20:11;;;;;;;4.70;0.80;;;;;;;28.31;37.20;102671.72;5259462;28;20061;-71
2022/08/09 11:22:42;;;;;;;2.28;1.02;;;;;;;28.06;36.66;102672.53;5254080;28;20497;-72
2022/08/09 11:25:15;;;;;;;5.82;1.08;;;;;;;28.15;37.85;102670.69;5252323;28;20040;-70
2022/08/09 11:27:52;;;;;;;4.07;1.00;;;;;;;28.20;36.83;102660.25;5261794;28;20052;-73
2022/08/09 11:30:26;;;;;;;3.95;1.20;;;;;;;28.04;37.38;102669.13;5258390;28;20052;-71
2022/08/09 11:33:31;;;;;;;2.88;0.90;;;;;;;28.56;37.54;102660.97;5258316;28;20040;-72
2022/08/09 11:36:02;;;;;;;2.95;0.90;;;;;;;28.26;37.17;102659.56;5261312;28;20107;-73
2022/08/09 11:38:35;;;;;;;1.23;0.60;;;;;;;28.52;36.20;102656.94;5255427;28;20032;-73
2022/08/09 11:41:10;;;;;;;4.07;0.73;;;;;;;28.42;36.47;102657.06;5249805;28;20040;-72
2022/08/09 11:43:47;;;;;;;4.18;1.10;;;;;;;28.17;35.94;102646.28;5254001;28;20066;-73
2022/08/09 11:46:18;;;;;;;2.92;0.70;;;;;;;28.43;35.32;102646.16;5259782;28;20036;-75
2022/08/09 11:48:59;;;;;;;2.55;0.68;;;;;;;28.49;35.34;102644.63;5255872;28;20039;-75
2022/08/09 11:52:01;;;;;;;3.78;0.90;;;;;;;28.35;36.10;102635.38;5259331;28;20032;-71
2022/08/09 11:54:32;;;;;;;3.85;1.20;;;;;;;28.72;33.41;102628.63;5259916;28;20103;-76
2022/08/09 11:57:36;;;;;;;2.10;0.82;;;;;;;28.81;34.37;102625.91;5255653;28;20036;-73